Time;durP1;ratioP1;P1;durP2;ratioP2;P2;SDS_P1;SDS_P2;PMS_P1;PMS_P2;Temp;Humidity;BMP_temperature;BMP_pressure;BME280_temperature;BME280_humidity;BME280_pressure;Samples;Min_cycle;Max_cycle;Signal;HPM_P1;HPM_P2
2022/06/02 00:01:12;;;;;;;;;;;;;;;12.43;57.79;101459.19;5047025;28;19921;-73
2022/06/02 00:03:37;;;;;;;;;;;;;;;12.59;57.18;101451.13;5049672;28;19921;-73
2022/06/02 00:06:11;;;;;;;;;;;;;;;12.56;57.55;101459.00;5044449;28;20004;-73
2022/06/02 00:08:51;;;;;;;;;;;;;;;12.45;57.23;101462.63;5041163;28;19978;-73
2022/06/02 00:11:20;;;;;;;;;;;;;;;12.46;57.33;101461.72;5034166;28;20011;-73
2022/06/02 00:14:03;;;;;;;;;;;;;;;12.39;57.71;101466.22;5043622;28;19921;-78
2022/06/02 00:16:44;;;;;;;;;;;;;;;12.33;57.62;101461.13;5061883;28;20435;-78
2022/06/02 00:19:17;;;;;;;;;;;;;;;12.26;58.13;101467.31;5044386;28;20301;-78
2022/06/02 00:21:48;;;;;;;;;;;;;;;12.37;57.80;101467.97;5043154;28;19928;-78
2022/06/02 00:24:36;;;;;;;;;;;;;;;12.42;57.67;101471.34;5060202;28;19920;-77
2022/06/02 00:27:19;;;;;;;;;;;;;;;12.40;57.73;101462.72;5063656;28;20484;-79
2022/06/02 00:29:57;;;;;;;;;;;;;;;12.34;57.78;101465.41;5051915;28;19920;-78
2022/06/02 00:32:52;;;;;;;;;;;;;;;12.27;57.81;101466.44;5048331;28;19964;-78
2022/06/02 00:35:36;;;;;;;;;;;;;;;12.21;58.29;101476.09;5006738;28;20377;-78
2022/06/02 00:38:04;;;;;;;;;;;;;;;12.25;58.26;101472.53;5048558;28;19921;-78
2022/06/02 00:40:30;;;;;;;;;;;;;;;12.33;57.93;101474.13;5048635;28;20369;-78
2022/06/02 00:42:55;;;;;;;;;;;;;;;12.23;57.70;101476.91;5065059;28;19964;-78
2022/06/02 00:45:21;;;;;;;;;;;;;;;12.30;58.12;101478.53;5038516;28;20431;-78
2022/06/02 00:47:49;;;;;;;;;;;;;;;12.24;57.51;101481.25;5062498;28;19913;-79
2022/06/02 00:50:34;;;;;;;;;;;;;;;12.28;58.39;101488.09;5027737;28;19975;-79
2022/06/02 00:53:00;;;;;;;;;;;;;;;12.20;57.96;101487.38;5049864;28;19928;-79
2022/06/02 00:58:39;;;;;;;;;;;;;;;12.08;58.76;101485.81;5027957;28;19969;-78
2022/06/02 01:01:12;;;;;;;;;;;;;;;12.10;57.80;101497.94;5032350;28;19931;-78
2022/06/02 01:03:39;;;;;;;;;;;;;;;12.10;58.21;101491.88;5041636;28;19925;-78
2022/06/02 01:06:23;;;;;;;;;;;;;;;12.07;58.40;101490.16;5054207;28;20007;-78
2022/06/02 01:09:07;;;;;;;;;;;;;;;12.12;57.78;101492.72;5047373;28;19925;-79
2022/06/02 01:11:41;;;;;;;;;;;;;;;12.16;57.85;101489.16;5053409;28;20002;-79
2022/06/02 01:14:19;;;;;;;;;;;;;;;12.02;58.05;101497.19;5059124;28;20425;-79
2022/06/02 01:16:50;;;;;;;;;;;;;;;12.06;58.84;101500.63;5039692;28;20566;-79
2022/06/02 01:19:34;;;;;;;;;;;;;;;12.17;58.24;101496.09;5039271;28;19925;-79
2022/06/02 01:22:00;;;;;;;;;;;;;;;12.04;58.08;101498.03;5060286;28;20386;-79
2022/06/02 01:24:44;;;;;;;;;;;;;;;12.22;57.77;101494.28;5055706;28;19917;-78
2022/06/02 01:27:16;;;;;;;;;;;;;;;12.07;58.33;101500.59;5032035;28;19921;-78
2022/06/02 01:29:54;;;;;;;;;;;;;;;12.06;58.39;101503.22;5056072;28;19917;-77
2022/06/02 01:32:24;;;;;;;;;;;;;;;11.94;58.34;101501.69;5059025;28;19932;-79
2022/06/02 01:34:59;;;;;;;;;;;;;;;11.96;57.90;101499.91;5044860;28;20385;-79
2022/06/02 01:37:30;;;;;;;;;;;;;;;11.88;58.73;101509.56;5042278;28;19925;-79
2022/06/02 01:39:55;;;;;;;;;;;;;;;11.81;59.27;101509.66;5048713;28;20008;-79
2022/06/02 01:42:41;;;;;;;;;;;;;;;11.91;59.13;101509.53;5058264;28;20011;-77
2022/06/02 01:45:38;;;;;;;;;;;;;;;11.98;58.83;101512.88;5048612;28;19923;-77
2022/06/02 01:48:22;;;;;;;;;;;;;;;11.82;59.11;101521.81;5056314;28;19921;-76
2022/06/02 01:51:05;;;;;;;;;;;;;;;11.74;59.54;101515.88;5042542;28;19921;-77
2022/06/02 01:53:34;;;;;;;;;;;;;;;11.83;59.46;101513.13;5056529;28;19928;-73
2022/06/02 01:56:02;;;;;;;;;;;;;;;11.79;60.06;101507.09;5047093;28;19925;-73
2022/06/02 01:58:35;;;;;;;;;;;;;;;11.71;59.66;101508.09;5058333;28;20467;-73
2022/06/02 02:01:03;;;;;;;;;;;;;;;11.70;59.44;101506.38;5027530;28;19967;-73
2022/06/02 02:03:34;;;;;;;;;;;;;;;11.66;59.32;101504.69;5026650;28;19932;-73
2022/06/02 02:06:03;;;;;;;;;;;;;;;11.62;59.82;101503.03;5031772;28;19913;-79
2022/06/02 02:08:39;;;;;;;;;;;;;;;11.80;59.16;101505.38;5052520;28;19968;-77
2022/06/02 02:11:05;;;;;;;;;;;;;;;11.71;58.98;101502.91;5046585;28;19932;-77
2022/06/02 02:13:39;;;;;;;;;;;;;;;11.79;58.67;101512.31;5052993;28;19920;-77
2022/06/02 02:16:14;;;;;;;;;;;;;;;11.74;58.82;101506.28;5055229;28;19929;-77
2022/06/02 02:18:48;;;;;;;;;;;;;;;11.77;58.74;101511.44;5041425;28;19928;-77
2022/06/02 02:21:32;;;;;;;;;;;;;;;11.77;58.60;101521.84;5037965;28;20019;-76
2022/06/02 02:24:16;;;;;;;;;;;;;;;11.75;58.76;101517.56;5052197;28;20433;-73
2022/06/02 02:26:45;;;;;;;;;;;;;;;11.64;59.46;101519.47;5055087;28;19944;-73
2022/06/02 02:29:26;;;;;;;;;;;;;;;11.65;58.80;101519.41;5044641;28;19928;-73
2022/06/02 02:32:05;;;;;;;;;;;;;;;11.70;59.29;101520.25;5038760;28;19933;-78
2022/06/02 02:34:49;;;;;;;;;;;;;;;11.62;59.06;101514.28;5042564;28;19928;-78
2022/06/02 02:37:17;;;;;;;;;;;;;;;11.71;58.97;101521.13;5053569;28;19921;-78
2022/06/02 02:39:52;;;;;;;;;;;;;;;11.73;58.49;101519.34;5055872;28;19982;-78
2022/06/02 02:42:21;;;;;;;;;;;;;;;11.69;59.44;101513.31;5048721;28;19916;-78
2022/06/02 02:45:06;;;;;;;;;;;;;;;11.56;59.61;101520.41;5035351;28;19968;-78
2022/06/02 02:47:58;;;;;;;;;;;;;;;11.62;59.17;101518.63;5033169;28;19939;-78
2022/06/02 02:50:29;;;;;;;;;;;;;;;11.71;59.45;101526.31;5033737;28;20338;-78
2022/06/02 02:53:03;;;;;;;;;;;;;;;11.66;59.13;101526.34;5037674;28;19925;-78
2022/06/02 02:55:34;;;;;;;;;;;;;;;11.36;59.12;101530.22;5034586;28;19925;-78
2022/06/02 02:58:00;;;;;;;;;;;;;;;11.20;60.06;101533.00;5056529;28;19920;-78
2022/06/02 03:00:59;;;;;;;;;;;;;;;11.17;60.39;101539.09;5046952;28;19974;-78
2022/06/02 03:03:33;;;;;;;;;;;;;;;11.47;58.91;101536.13;5034360;28;19975;-78
2022/06/02 03:06:09;;;;;;;;;;;;;;;11.44;59.08;101541.38;5046382;28;20008;-78
2022/06/02 03:08:53;;;;;;;;;;;;;;;11.51;59.51;101542.16;5040801;28;19929;-78
2022/06/02 03:11:39;;;;;;;;;;;;;;;11.58;59.45;101549.03;5042500;28;19954;-78
2022/06/02 03:14:23;;;;;;;;;;;;;;;11.13;60.60;101552.13;5040332;28;19924;-78
2022/06/02 03:16:51;;;;;;;;;;;;;;;11.31;60.41;101558.03;5049575;28;19928;-78
2022/06/02 03:19:16;;;;;;;;;;;;;;;11.17;60.32;101559.03;5043507;28;19921;-78
2022/06/02 03:22:05;;;;;;;;;;;;;;;11.07;61.18;101560.00;5049421;28;19930;-78
2022/06/02 03:24:33;;;;;;;;;;;;;;;11.09;60.72;101561.69;5026022;28;19925;-78
2022/06/02 03:27:07;;;;;;;;;;;;;;;11.07;61.45;101558.25;5044618;28;20012;-78
2022/06/02 03:29:39;;;;;;;;;;;;;;;11.01;61.31;101568.72;5040136;28;19925;-78
2022/06/02 03:32:07;;;;;;;;;;;;;;;11.12;60.98;101566.84;5056367;28;19943;-78
2022/06/02 03:34:40;;;;;;;;;;;;;;;10.97;61.53;101567.00;5057071;28;19921;-78
2022/06/02 03:37:24;;;;;;;;;;;;;;;10.85;62.02;101572.34;5053068;28;19960;-78
2022/06/02 03:40:01;;;;;;;;;;;;;;;11.21;60.57;101571.09;5051128;28;19947;-78
2022/06/02 03:42:27;;;;;;;;;;;;;;;11.27;59.96;101569.31;5056816;28;19923;-78
2022/06/02 03:45:00;;;;;;;;;;;;;;;11.35;59.85;101569.25;5044494;28;19917;-78
2022/06/02 03:47:31;;;;;;;;;;;;;;;11.26;60.04;101571.94;5042934;28;19929;-78
2022/06/02 03:50:11;;;;;;;;;;;;;;;11.19;60.28;101578.06;5036367;28;20354;-78
2022/06/02 03:52:56;;;;;;;;;;;;;;;11.32;59.53;101575.38;5032118;28;19927;-79
2022/06/02 03:55:24;;;;;;;;;;;;;;;11.20;60.00;101572.00;5043476;28;19916;-79
2022/06/02 03:57:52;;;;;;;;;;;;;;;11.39;59.76;101581.34;5041942;28;19974;-79
2022/06/02 04:00:44;;;;;;;;;;;;;;;11.10;60.89;101579.03;5050225;28;19917;-79
2022/06/02 04:03:12;;;;;;;;;;;;;;;10.99;61.68;101584.34;5057527;28;20378;-77
2022/06/02 04:05:56;;;;;;;;;;;;;;;10.73;62.88;101594.09;5050741;28;19919;-79
2022/06/02 04:08:25;;;;;;;;;;;;;;;10.79;62.54;101599.25;5044434;28;19970;-79
2022/06/02 04:11:09;;;;;;;;;;;;;;;10.91;61.75;101612.13;5044730;28;19925;-79
2022/06/02 04:13:37;;;;;;;;;;;;;;;11.16;60.65;101604.09;5049472;28;19970;-79
2022/06/02 04:16:05;;;;;;;;;;;;;;;11.08;61.32;101613.72;5048912;28;19927;-77
2022/06/02 04:18:37;;;;;;;;;;;;;;;11.30;61.13;101615.25;5055652;28;19924;-77
2022/06/02 04:21:20;;;;;;;;;;;;;;;11.20;60.99;101606.69;5051132;28;20610;-77
2022/06/02 04:24:04;;;;;;;;;;;;;;;11.22;61.85;101619.66;5039213;28;19921;-77
2022/06/02 04:26:35;;;;;;;;;;;;;;;11.04;62.15;101631.09;5052775;28;19924;-77
2022/06/02 04:29:11;;;;;;;;;;;;;;;10.98;62.38;101632.00;5045501;28;20012;-77
2022/06/02 04:31:42;;;;;;;;;;;;;;;10.86;62.44;101634.72;5063691;28;20011;-76
2022/06/02 04:34:16;;;;;;;;;;;;;;;11.05;62.84;101638.03;5069399;28;20011;-77
2022/06/02 04:37:00;;;;;;;;;;;;;;;11.25;61.83;101635.22;5038517;28;19999;-77
2022/06/02 04:39:30;;;;;;;;;;;;;;;11.02;62.64;101638.91;5051542;28;20010;-77
2022/06/02 04:42:03;;;;;;;;;;;;;;;11.09;63.11;101642.28;5059382;28;19948;-76
2022/06/02 04:44:54;;;;;;;;;;;;;;;11.33;61.90;101636.91;5046153;28;19921;-76
2022/06/02 04:47:19;;;;;;;;;;;;;;;11.34;61.99;101633.44;4996843;28;19955;-77
2022/06/02 04:49:47;;;;;;;;;;;;;;;11.34;61.38;101632.56;5057900;28;19924;-77
2022/06/02 04:52:31;;;;;;;;;;;;;;;11.38;61.67;101634.25;5070642;28;19928;-77
2022/06/02 04:55:10;;;;;;;;;;;;;;;11.37;61.78;101630.78;5050627;28;19924;-77
2022/06/02 04:57:42;;;;;;;;;;;;;;;11.35;61.65;101623.88;5057458;28;19921;-77
2022/06/02 05:00:22;;;;;;;;;;;;;;;11.46;60.05;101620.28;5052503;28;19924;-77
2022/06/02 05:03:02;;;;;;;;;;;;;;;11.40;60.80;101620.34;5056747;28;19982;-76
2022/06/02 05:05:30;;;;;;;;;;;;;;;11.59;60.27;101618.41;5052239;28;19925;-77
2022/06/02 05:08:04;;;;;;;;;;;;;;;11.57;60.00;101618.41;5033216;28;19924;-77
2022/06/02 05:10:42;;;;;;;;;;;;;;;11.52;60.97;101620.22;5051484;28;19959;-77
2022/06/02 05:13:13;;;;;;;;;;;;;;;11.60;60.44;101627.06;5048726;28;20007;-76
2022/06/02 05:15:38;;;;;;;;;;;;;;;11.52;61.18;101621.97;5024569;28;19965;-77
2022/06/02 05:18:17;;;;;;;;;;;;;;;11.60;60.39;101624.47;5043693;28;19956;-77
2022/06/02 05:20:42;;;;;;;;;;;;;;;11.66;60.66;101627.00;5038939;28;19946;-76
2022/06/02 05:23:17;;;;;;;;;;;;;;;11.67;59.77;101628.72;5050235;28;20559;-77
2022/06/02 05:25:53;;;;;;;;;;;;;;;11.72;60.38;101626.91;5049456;28;20008;-77
2022/06/02 05:28:19;;;;;;;;;;;;;;;11.74;60.63;101631.22;5050494;28;20003;-73
2022/06/02 05:30:58;;;;;;;;;;;;;;;11.58;60.70;101632.31;5050617;28;20000;-73
2022/06/02 05:33:32;;;;;;;;;;;;;;;11.78;60.77;101617.31;5031074;28;20402;-73
2022/06/02 05:36:09;;;;;;;;;;;;;;;11.53;60.92;101624.53;5054861;28;19921;-73
2022/06/02 05:38:34;;;;;;;;;;;;;;;11.63;61.26;101633.09;5043834;28;19920;-73
2022/06/02 05:41:06;;;;;;;;;;;;;;;11.84;60.37;101630.25;5052695;28;19928;-73
2022/06/02 05:43:34;;;;;;;;;;;;;;;11.90;60.72;101627.56;5044408;28;20032;-73
2022/06/02 05:46:02;;;;;;;;;;;;;;;11.91;61.47;101633.63;5053887;28;19978;-73
2022/06/02 05:48:50;;;;;;;;;;;;;;;11.87;61.51;101639.75;5049202;28;19924;-73
2022/06/02 05:51:31;;;;;;;;;;;;;;;11.74;61.73;101643.41;5047035;28;19929;-74
2022/06/02 05:54:05;;;;;;;;;;;;;;;11.87;61.29;101647.56;5034686;28;19920;-73
2022/06/02 05:56:39;;;;;;;;;;;;;;;11.90;61.90;101653.59;5062071;28;19920;-73
2022/06/02 05:59:15;;;;;;;;;;;;;;;11.93;62.47;101652.69;5057203;28;19927;-73
2022/06/02 06:01:49;;;;;;;;;;;;;;;11.93;62.25;101665.72;5058900;28;19928;-73
2022/06/02 06:04:30;;;;;;;;;;;;;;;12.09;61.74;101665.53;5039065;28;19955;-73
2022/06/02 06:06:57;;;;;;;;;;;;;;;11.83;62.02;101659.75;5035008;28;19963;-73
2022/06/02 06:09:41;;;;;;;;;;;;;;;11.91;62.16;101670.09;5046036;28;20511;-73
2022/06/02 06:12:09;;;;;;;;;;;;;;;12.02;61.48;101665.59;5056480;28;19932;-73
2022/06/02 06:14:55;;;;;;;;;;;;;;;12.10;62.79;101668.97;5051087;28;20443;-73
2022/06/02 06:17:30;;;;;;;;;;;;;;;12.01;62.60;101659.53;5026655;28;19971;-73
2022/06/02 06:20:13;;;;;;;;;;;;;;;11.93;63.75;101670.91;5041945;28;20031;-76
2022/06/02 06:22:44;;;;;;;;;;;;;;;12.04;62.92;101671.63;5050629;28;20412;-76
2022/06/02 06:25:22;;;;;;;;;;;;;;;12.00;62.63;101675.19;5047494;28;19936;-78
2022/06/02 06:27:53;;;;;;;;;;;;;;;12.08;62.57;101669.00;5067372;28;19928;-78
2022/06/02 06:30:21;;;;;;;;;;;;;;;12.16;62.41;101668.00;5050020;28;20013;-78
2022/06/02 06:33:27;;;;;;;;;;;;;;;12.16;62.00;101668.88;5047381;28;20042;-78
2022/06/02 06:35:52;;;;;;;;;;;;;;;12.28;61.48;101676.53;4948104;29;19938;-78
2022/06/02 06:38:33;;;;;;;;;;;;;;;12.17;62.46;101677.56;4947357;29;19919;-79
2022/06/02 06:41:01;;;;;;;;;;;;;;;12.12;62.62;101675.03;4997275;28;19932;-77
2022/06/02 06:43:26;;;;;;;;;;;;;;;12.19;63.25;101689.69;5045698;28;20023;-77
2022/06/02 06:46:10;;;;;;;;;;;;;;;12.19;62.45;101689.69;5042961;28;20532;-77
2022/06/02 06:48:38;;;;;;;;;;;;;;;12.22;63.12;101693.97;5044692;28;19921;-77
2022/06/02 06:51:22;;;;;;;;;;;;;;;12.25;63.64;101699.16;5042130;28;20012;-77
2022/06/02 06:54:13;;;;;;;;;;;;;;;12.30;63.75;101702.59;5048203;28;19921;-77
2022/06/02 06:57:00;;;;;;;;;;;;;;;12.28;62.52;101710.41;5025481;28;19921;-79
2022/06/02 06:59:29;;;;;;;;;;;;;;;12.28;62.46;101704.31;5041617;28;20431;-79
2022/06/02 07:02:01;;;;;;;;;;;;;;;12.37;62.12;101706.81;5049061;28;19925;-79
2022/06/02 07:04:45;;;;;;;;;;;;;;;12.42;62.07;101707.63;5041309;28;20027;-79
2022/06/02 07:07:29;;;;;;;;;;;;;;;12.27;62.28;101706.09;5043853;28;19920;-79
2022/06/02 07:10:14;;;;;;;;;;;;;;;12.43;62.53;101704.13;5049254;28;19929;-78
2022/06/02 07:13:01;;;;;;;;;;;;;;;12.43;63.21;101698.91;5039689;28;19928;-79
2022/06/02 07:15:33;;;;;;;;;;;;;;;12.48;61.85;101695.34;5038490;28;20323;-73
2022/06/02 07:17:58;;;;;;;;;;;;;;;12.48;62.11;101692.75;5042796;28;19966;-73
2022/06/02 07:20:46;;;;;;;;;;;;;;;12.36;61.92;101689.47;5047930;28;19924;-73
2022/06/02 07:23:27;;;;;;;;;;;;;;;12.52;61.84;101680.53;5046375;28;20453;-74
2022/06/02 07:26:04;;;;;;;;;;;;;;;12.51;62.66;101695.31;5060344;28;19935;-73
2022/06/02 07:28:36;;;;;;;;;;;;;;;12.54;62.68;101697.06;5044938;28;19921;-78
2022/06/02 07:31:20;;;;;;;;;;;;;;;12.55;62.00;101691.81;5049667;28;19975;-77
2022/06/02 07:33:48;;;;;;;;;;;;;;;12.56;61.98;101684.88;5032463;28;19952;-77
2022/06/02 07:36:33;;;;;;;;;;;;;;;12.44;63.15;101685.00;5040932;28;20727;-78
2022/06/02 07:39:11;;;;;;;;;;;;;;;12.64;61.28;101676.06;5050410;28;19959;-73
2022/06/02 07:41:48;;;;;;;;;;;;;;;12.71;61.34;101676.81;5044501;28;19920;-78
2022/06/02 07:44:13;;;;;;;;;;;;;;;12.79;61.95;101679.31;5038012;28;20413;-78
2022/06/02 07:47:01;;;;;;;;;;;;;;;12.71;62.18;101682.03;5046104;28;19942;-73
2022/06/02 07:49:45;;;;;;;;;;;;;;;12.75;61.75;101681.09;5034108;28;20723;-73
2022/06/02 07:52:17;;;;;;;;;;;;;;;12.69;62.07;101688.16;5056162;28;19927;-73
2022/06/02 07:55:02;;;;;;;;;;;;;;;12.71;61.61;101683.78;5046500;28;19925;-73
2022/06/02 07:57:33;;;;;;;;;;;;;;;12.77;60.79;101683.69;5049824;28;19967;-73
2022/06/02 08:00:05;;;;;;;;;;;;;;;12.69;61.60;101681.19;5029739;28;19921;-73
2022/06/02 08:02:43;;;;;;;;;;;;;;;12.70;60.91;101674.22;5048287;28;19986;-73
2022/06/02 08:05:22;;;;;;;;;;;;;;;12.86;60.37;101676.59;5043923;28;19924;-78
2022/06/02 08:07:59;;;;;;;;;;;;;;;12.88;60.50;101674.81;5029673;28;20283;-78
2022/06/02 08:10:43;;;;;;;;;;;;;;;12.88;60.28;101677.41;5051537;28;20337;-73
2022/06/02 08:13:09;;;;;;;;;;;;;;;12.81;58.52;101681.00;5045478;28;20017;-77
2022/06/02 08:15:41;;;;;;;;;;;;;;;12.85;58.79;101687.03;5047377;28;20013;-79
2022/06/02 08:18:19;;;;;;;;;;;;;;;12.89;58.94;101679.16;5045505;28;20387;-79
2022/06/02 08:20:47;;;;;;;;;;;;;;;12.93;59.14;101682.53;5061522;28;19917;-79
2022/06/02 08:23:35;;;;;;;;;;;;;;;12.90;57.25;101685.22;5032524;28;19925;-79
2022/06/02 08:26:09;;;;;;;;;;;;;;;12.88;56.38;101680.03;5049161;28;19927;-79
2022/06/02 08:29:00;;;;;;;;;;;;;;;12.93;56.72;101678.19;5020225;28;20015;-79
2022/06/02 08:31:41;;;;;;;;;;;;;;;13.04;56.17;101684.13;5046243;28;19951;-79
2022/06/02 08:34:29;;;;;;;;;;;;;;;13.08;55.93;101692.72;5031794;28;19925;-79
2022/06/02 08:37:07;;;;;;;;;;;;;;;13.10;57.35;101702.28;5019987;28;19947;-79
2022/06/02 08:39:47;;;;;;;;;;;;;;;12.99;56.88;101695.47;5042587;28;20388;-79
2022/06/02 08:42:33;;;;;;;;;;;;;;;13.08;57.09;101697.94;5050240;28;19928;-78
2022/06/02 08:45:11;;;;;;;;;;;;;;;13.16;57.24;101693.47;5046062;28;19921;-79
2022/06/02 08:47:39;;;;;;;;;;;;;;;13.27;57.93;101691.53;5047266;28;20282;-79
2022/06/02 08:50:23;;;;;;;;;;;;;;;13.27;56.94;101694.16;5046229;28;19932;-79
2022/06/02 08:53:08;;;;;;;;;;;;;;;13.20;55.75;101695.13;5049201;28;20382;-74
2022/06/02 08:55:33;;;;;;;;;;;;;;;13.22;54.40;101704.66;5052758;28;19967;-73
2022/06/02 08:57:58;;;;;;;;;;;;;;;13.25;53.22;101701.16;5061812;28;19925;-73
2022/06/02 09:00:41;;;;;;;;;;;;;;;13.18;53.51;101707.34;5056567;28;20003;-73
2022/06/02 09:03:06;;;;;;;;;;;;;;;13.25;53.73;101708.13;5047085;28;20604;-73
2022/06/02 09:05:51;;;;;;;;;;;;;;;13.23;52.70;101706.38;5039822;28;20006;-73
2022/06/02 09:08:35;;;;;;;;;;;;;;;13.23;53.66;101705.50;5035414;28;20281;-76
2022/06/02 09:11:03;;;;;;;;;;;;;;;13.23;51.16;101692.47;5046612;28;19963;-76
2022/06/02 09:13:28;;;;;;;;;;;;;;;13.31;51.42;101695.84;5062286;28;19966;-76
2022/06/02 09:16:03;;;;;;;;;;;;;;;13.27;50.21;101703.72;5048052;28;20399;-77
2022/06/02 09:18:47;;;;;;;;;;;;;;;13.32;50.08;101700.13;5046737;28;20344;-77
2022/06/02 09:21:18;;;;;;;;;;;;;;;13.31;50.36;101693.22;5050591;28;20597;-77
2022/06/02 09:23:46;;;;;;;;;;;;;;;13.33;52.19;101701.88;5038296;28;20340;-76
2022/06/02 09:26:12;;;;;;;;;;;;;;;13.37;52.40;101695.72;5054688;28;19967;-76
2022/06/02 09:28:40;;;;;;;;;;;;;;;13.41;50.07;101699.13;5055230;28;19952;-76
2022/06/02 09:31:05;;;;;;;;;;;;;;;13.42;50.96;101701.72;5063465;28;20011;-76
2022/06/02 09:33:49;;;;;;;;;;;;;;;13.40;49.49;101694.81;5062937;28;20008;-76
2022/06/02 09:36:14;;;;;;;;;;;;;;;13.42;49.50;101698.25;5064901;28;20015;-77
2022/06/02 09:38:54;;;;;;;;;;;;;;;13.47;51.51;101694.66;5057920;28;20023;-77
2022/06/02 09:41:38;;;;;;;;;;;;;;;13.54;51.93;101692.78;5062435;28;19921;-76
2022/06/02 09:44:07;;;;;;;;;;;;;;;13.50;51.44;101691.13;5036542;28;19960;-76
2022/06/02 09:47:02;;;;;;;;;;;;;;;13.54;51.07;101692.78;5058174;28;19916;-76
2022/06/02 09:49:36;;;;;;;;;;;;;;;13.51;51.45;101687.63;5052840;28;19947;-77
2022/06/02 09:52:13;;;;;;;;;;;;;;;13.45;50.52;101680.78;5051900;28;19928;-73
2022/06/02 09:54:41;;;;;;;;;;;;;;;13.50;50.56;101683.28;5049850;28;19916;-73
2022/06/02 10:00:11;;;;;;;;;;;;;;;13.54;51.43;101685.84;5047749;28;20047;-73
2022/06/02 10:03:00;;;;;;;;;;;;;;;13.59;51.79;101686.59;5052333;28;19978;-73
2022/06/02 10:05:32;;;;;;;;;;;;;;;13.58;50.97;101684.03;5037333;28;20408;-73
2022/06/02 10:08:07;;;;;;;;;;;;;;;13.59;50.94;101684.00;5047975;28;19932;-73
2022/06/02 10:10:33;;;;;;;;;;;;;;;13.60;51.02;101679.63;5047191;28;20054;-73
2022/06/02 10:13:01;;;;;;;;;;;;;;;13.62;50.61;101678.72;5050747;28;20023;-73
2022/06/02 10:15:48;;;;;;;;;;;;;;;13.65;47.87;101675.16;5049762;28;20043;-73
2022/06/02 10:18:20;;;;;;;;;;;;;;;13.66;47.60;101671.69;5037495;28;19969;-73
2022/06/02 10:20:46;;;;;;;;;;;;;;;13.70;45.40;101670.78;5045977;28;19975;-73
2022/06/02 10:23:17;;;;;;;;;;;;;;;13.70;46.74;101669.00;5049149;28;19929;-73
2022/06/02 10:25:54;;;;;;;;;;;;;;;13.70;50.18;101674.22;5058282;28;20382;-73
2022/06/02 10:28:26;;;;;;;;;;;;;;;13.65;50.71;101670.81;5053970;28;19920;-73
2022/06/02 10:31:21;;;;;;;;;;;;;;;13.72;51.32;101667.25;5059162;28;20408;-73
2022/06/02 10:33:46;;;;;;;;;;;;;;;13.74;51.70;101673.28;4994020;28;19922;-73
2022/06/02 10:36:23;;;;;;;;;;;;;;;13.72;50.88;101664.63;5051656;28;19919;-73
2022/06/02 10:38:49;;;;;;;;;;;;;;;13.75;51.00;101667.19;5045579;28;20289;-78
2022/06/02 10:41:33;;;;;;;;;;;;;;;13.77;50.68;101656.69;5055574;28;19924;-79
2022/06/02 10:43:58;;;;;;;;;;;;;;;13.77;49.02;101665.38;5031777;28;19932;-78
2022/06/02 10:46:42;;;;;;;;;;;;;;;13.80;49.10;101659.25;5048349;28;19935;-78
2022/06/02 10:49:34;;;;;;;;;;;;;;;13.81;51.73;101658.34;5044271;28;19943;-79
2022/06/02 10:52:11;;;;;;;;;;;;;;;13.81;50.69;101657.50;5046079;28;20019;-79
2022/06/02 10:54:37;;;;;;;;;;;;;;;13.84;49.64;101660.91;5054446;28;19920;-79
2022/06/02 10:57:03;;;;;;;;;;;;;;;13.85;50.08;101665.22;5031170;28;20361;-79
2022/06/02 10:59:33;;;;;;;;;;;;;;;13.86;50.07;101653.91;5032704;28;19920;-73
2022/06/02 11:01:59;;;;;;;;;;;;;;;13.87;52.95;101647.78;5033042;28;20011;-73
2022/06/02 11:04:43;;;;;;;;;;;;;;;13.90;48.56;101647.72;5029089;28;20082;-79
2022/06/02 11:07:27;;;;;;;;;;;;;;;13.88;48.82;101640.81;5044045;28;19925;-79
2022/06/02 11:09:52;;;;;;;;;;;;;;;13.95;49.58;101640.66;5048504;28;19925;-79
2022/06/02 11:12:27;;;;;;;;;;;;;;;13.92;54.64;101642.47;5042125;28;19993;-79
2022/06/02 11:15:03;;;;;;;;;;;;;;;13.99;50.52;101633.59;5053646;28;19920;-79
2022/06/02 11:17:47;;;;;;;;;;;;;;;13.96;50.03;101639.75;5040068;28;19971;-78
2022/06/02 11:20:31;;;;;;;;;;;;;;;14.14;50.61;101642.00;5049753;28;19967;-78
2022/06/02 11:23:15;;;;;;;;;;;;;;;14.15;49.49;101630.63;5039744;28;19924;-79
2022/06/02 11:25:40;;;;;;;;;;;;;;;14.09;49.46;101633.38;5045401;28;20287;-77
2022/06/02 11:28:24;;;;;;;;;;;;;;;14.12;49.21;101630.69;5062723;28;19973;-77
2022/06/02 11:31:08;;;;;;;;;;;;;;;14.09;48.29;101622.06;5048619;28;19921;-77
2022/06/02 11:33:34;;;;;;;;;;;;;;;14.21;48.50;101624.41;5053733;28;20351;-77
2022/06/02 11:36:03;;;;;;;;;;;;;;;14.26;47.65;101622.56;5035275;28;19924;-73
2022/06/02 11:38:34;;;;;;;;;;;;;;;14.19;48.66;101624.44;5051876;28;19921;-73
2022/06/02 11:41:11;;;;;;;;;;;;;;;14.21;48.17;101614.81;5045772;28;19963;-73
2022/06/02 11:43:37;;;;;;;;;;;;;;;14.17;48.56;101601.88;5062484;28;19968;-73
2022/06/02 11:46:14;;;;;;;;;;;;;;;14.16;51.29;101605.34;5041251;28;19964;-73
2022/06/02 11:48:58;;;;;;;;;;;;;;;14.18;49.57;101593.97;5033436;28;20337;-73
2022/06/02 11:51:24;;;;;;;;;;;;;;;14.20;49.24;101586.13;5052076;28;19928;-73
2022/06/02 11:53:49;;;;;;;;;;;;;;;14.19;52.15;101589.59;5040220;28;19916;-73
2022/06/02 11:56:17;;;;;;;;;;;;;;;14.29;48.60;101586.72;5036100;28;19984;-73
2022/06/02 11:59:02;;;;;;;;;;;;;;;14.25;48.62;101579.00;5047353;28;19966;-78
2022/06/02 12:01:30;;;;;;;;;;;;;;;14.26;48.00;101572.91;5031061;28;19917;-79
2022/06/02 12:04:10;;;;;;;;;;;;;;;14.24;50.90;101578.16;5051075;28;19924;-78
2022/06/02 12:06:55;;;;;;;;;;;;;;;14.29;50.41;101578.06;5054574;28;20298;-78
2022/06/02 12:09:39;;;;;;;;;;;;;;;14.33;49.85;101574.47;5036899;28;19921;-78
2022/06/02 12:12:24;;;;;;;;;;;;;;;14.55;49.79;101577.44;5043682;28;20021;-79
2022/06/02 12:15:07;;;;;;;;;;;;;;;14.61;48.93;101572.06;5051363;28;19927;-73
2022/06/02 12:17:38;;;;;;;;;;;;;;;14.53;48.42;101564.38;5044504;28;20063;-73
2022/06/02 12:20:21;;;;;;;;;;;;;;;14.64;48.12;101554.53;5045562;28;19929;-73
2022/06/02 12:22:52;;;;;;;;;;;;;;;14.79;48.35;101562.03;5047566;28;20005;-73
2022/06/02 12:25:17;;;;;;;;;;;;;;;14.85;46.70;101548.78;5046100;28;19999;-73
2022/06/02 12:27:43;;;;;;;;;;;;;;;14.85;47.17;101555.78;5047818;28;20334;-73
2022/06/02 12:30:08;;;;;;;;;;;;;;;14.76;47.28;101548.16;5035870;28;19923;-73
2022/06/02 12:32:39;;;;;;;;;;;;;;;14.70;48.20;101553.50;5053137;28;19974;-79
2022/06/02 12:35:07;;;;;;;;;;;;;;;14.93;45.99;101545.09;5051294;28;19928;-79
2022/06/02 12:37:41;;;;;;;;;;;;;;;14.79;47.09;101535.88;5032181;28;19928;-79
2022/06/02 12:40:07;;;;;;;;;;;;;;;14.80;47.37;101548.03;5038713;28;19970;-79
2022/06/02 12:42:42;;;;;;;;;;;;;;;14.90;46.44;101542.56;5045902;28;19921;-79
2022/06/02 12:45:31;;;;;;;;;;;;;;;14.88;46.54;101540.00;5041998;28;19917;-76
2022/06/02 12:48:08;;;;;;;;;;;;;;;14.77;48.29;101534.16;5036579;28;19917;-77
2022/06/02 12:50:52;;;;;;;;;;;;;;;14.97;46.29;101549.34;5047887;28;19931;-73
2022/06/02 12:53:33;;;;;;;;;;;;;;;14.79;48.17;101543.72;5044744;28;19954;-73
2022/06/02 12:56:17;;;;;;;;;;;;;;;14.87;48.07;101544.38;5050561;28;20458;-76
2022/06/02 12:58:42;;;;;;;;;;;;;;;14.90;46.57;101532.97;5054215;28;20452;-77
2022/06/02 13:01:14;;;;;;;;;;;;;;;15.13;45.81;101538.41;5064957;28;19920;-77
2022/06/02 13:04:05;;;;;;;;;;;;;;;15.10;45.89;101532.41;5049630;28;20011;-76
2022/06/02 13:06:49;;;;;;;;;;;;;;;14.83;53.48;101550.56;5058895;28;20386;-77
2022/06/02 13:09:14;;;;;;;;;;;;;;;15.08;46.41;101537.69;5042940;28;19932;-78
2022/06/02 13:11:48;;;;;;;;;;;;;;;15.05;46.95;101532.53;5057716;28;19924;-79
2022/06/02 13:14:19;;;;;;;;;;;;;;;15.12;47.39;101534.09;5045321;28;19921;-73
2022/06/02 13:17:04;;;;;;;;;;;;;;;15.21;46.18;101533.00;5055641;28;20313;-73
2022/06/02 13:19:48;;;;;;;;;;;;;;;15.00;49.23;101534.44;5042773;28;20509;-73
2022/06/02 13:22:16;;;;;;;;;;;;;;;15.22;46.46;101527.69;5049297;28;19925;-73
2022/06/02 13:24:45;;;;;;;;;;;;;;;15.25;44.89;101518.91;5050341;28;19921;-73